Time;durP1;ratioP1;P1;durP2;ratioP2;P2;SDS_P1;SDS_P2;PMS_P1;PMS_P2;Temp;Humidity;BMP_temperature;BMP_pressure;BME280_temperature;BME280_humidity;BME280_pressure;Samples;Min_cycle;Max_cycle;Signal;HPM_P1;HPM_P2
2019/07/07 00:00:22;;;;;;;5.35;4.45;;;;;;;19.52;58.33691;94730.3;;;;
2019/07/07 00:01:24;;;;;;;5.35;4.45;;;;;;;19.52;58.33691;94730.3;;;;
2019/07/07 00:02:25;;;;;;;5.35;4.45;;;;;;;19.52;58.33691;94730.3;;;;
2019/07/07 00:03:26;;;;;;;5.35;4.45;;;;;;;19.52;58.33691;94730.3;;;;
2019/07/07 00:04:27;;;;;;;5.35;4.45;;;;;;;19.52;58.33691;94730.3;;;;
2019/07/07 00:05:29;;;;;;;5.35;4.45;;;;;;;19.52;58.33691;94730.3;;;;
2019/07/07 00:06:30;;;;;;;5.35;4.45;;;;;;;19.52;58.33691;94730.3;;;;
2019/07/07 00:07:31;;;;;;;5.7;4.599999;;;;;;;19.33;59.67188;94733.7;;;;
2019/07/07 00:08:32;;;;;;;5.7;4.599999;;;;;;;19.33;59.67188;94733.7;;;;
2019/07/07 00:09:33;;;;;;;5.7;4.599999;;;;;;;19.33;59.67188;94733.7;;;;
2019/07/07 00:10:34;;;;;;;5.7;4.599999;;;;;;;19.33;59.67188;94733.7;;;;
2019/07/07 00:11:35;;;;;;;5.7;4.599999;;;;;;;19.33;59.67188;94733.7;;;;
2019/07/07 00:12:36;;;;;;;5.7;4.599999;;;;;;;19.33;59.67188;94733.7;;;;
2019/07/07 00:13:37;;;;;;;5.7;4.599999;;;;;;;19.33;59.67188;94733.7;;;;
2019/07/07 00:14:39;;;;;;;5.7;4.599999;;;;;;;19.33;59.67188;94733.7;;;;
2019/07/07 00:15:40;;;;;;;5.7;4.599999;;;;;;;19.33;59.67188;94733.7;;;;
2019/07/07 00:16:41;;;;;;;5.7;4.599999;;;;;;;19.33;59.67188;94733.7;;;;
2019/07/07 00:17:42;;;;;;;5.7;4.599999;;;;;;;19.33;59.67188;94733.7;;;;
2019/07/07 00:18:43;;;;;;;6.25;4.400001;;;;;;;19.16;60.78809;94712.13;;;;
2019/07/07 00:19:44;;;;;;;6.25;4.400001;;;;;;;19.16;60.78809;94712.13;;;;
2019/07/07 00:20:45;;;;;;;6.25;4.400001;;;;;;;19.16;60.78809;94712.13;;;;
2019/07/07 00:21:46;;;;;;;6.25;4.400001;;;;;;;19.16;60.78809;94712.13;;;;
2019/07/07 00:22:47;;;;;;;6.25;4.400001;;;;;;;19.16;60.78809;94712.13;;;;
2019/07/07 00:23:48;;;;;;;6.25;4.400001;;;;;;;19.16;60.78809;94712.13;;;;
2019/07/07 00:24:50;;;;;;;6.25;4.400001;;;;;;;19.16;60.78809;94712.13;;;;
2019/07/07 00:25:51;;;;;;;6.25;4.400001;;;;;;;19.16;60.78809;94712.13;;;;
2019/07/07 00:26:52;;;;;;;6.25;4.400001;;;;;;;19.16;60.78809;94712.13;;;;
2019/07/07 00:27:53;;;;;;;6.25;4.400001;;;;;;;19.16;60.78809;94712.13;;;;
2019/07/07 00:28:54;;;;;;;4.8;4.1;;;;;;;19.14;62.61621;94771.25;;;;
2019/07/07 00:29:55;;;;;;;4.8;4.1;;;;;;;19.14;62.61621;94771.25;;;;
2019/07/07 00:30:56;;;;;;;4.8;4.1;;;;;;;19.14;62.61621;94771.25;;;;
2019/07/07 00:31:57;;;;;;;4.8;4.1;;;;;;;19.14;62.61621;94771.25;;;;
2019/07/07 00:32:58;;;;;;;4.8;4.1;;;;;;;19.14;62.61621;94771.25;;;;
2019/07/07 00:34:00;;;;;;;4.8;4.1;;;;;;;19.14;62.61621;94771.25;;;;
2019/07/07 00:35:01;;;;;;;4.8;4.1;;;;;;;19.14;62.61621;94771.25;;;;
2019/07/07 00:36:02;;;;;;;4.8;4.1;;;;;;;19.14;62.61621;94771.25;;;;
2019/07/07 00:37:03;;;;;;;4.8;4.1;;;;;;;19.14;62.61621;94771.25;;;;
2019/07/07 00:38:04;;;;;;;4.8;4.1;;;;;;;19.14;62.61621;94771.25;;;;
2019/07/07 00:39:05;;;;;;;8.65;5.45;;;;;;;18.92;64.21484;94751.14;;;;
2019/07/07 00:40:06;;;;;;;8.65;5.45;;;;;;;18.92;64.21484;94751.14;;;;
2019/07/07 00:41:08;;;;;;;8.65;5.45;;;;;;;18.92;64.21484;94751.14;;;;
2019/07/07 00:42:10;;;;;;;8.65;5.45;;;;;;;18.92;64.21484;94751.14;;;;
2019/07/07 00:43:11;;;;;;;8.65;5.45;;;;;;;18.92;64.21484;94751.14;;;;
2019/07/07 00:44:12;;;;;;;8.65;5.45;;;;;;;18.92;64.21484;94751.14;;;;
2019/07/07 00:45:13;;;;;;;8.65;5.45;;;;;;;18.92;64.21484;94751.14;;;;
2019/07/07 00:46:16;;;;;;;8.65;5.45;;;;;;;18.92;64.21484;94751.14;;;;
2019/07/07 00:47:18;;;;;;;8.65;5.45;;;;;;;18.92;64.21484;94751.14;;;;
2019/07/07 00:48:19;;;;;;;8.65;5.45;;;;;;;18.92;64.21484;94751.14;;;;
2019/07/07 00:49:20;;;;;;;8.65;5.45;;;;;;;18.92;64.21484;94751.14;;;;
2019/07/07 00:50:21;;;;;;;7.3;5.6;;;;;;;18.54;66.93555;94752.75;;;;
2019/07/07 00:51:22;;;;;;;7.3;5.6;;;;;;;18.54;66.93555;94752.75;;;;
2019/07/07 00:52:23;;;;;;;7.3;5.6;;;;;;;18.54;66.93555;94752.75;;;;
2019/07/07 00:53:24;;;;;;;7.3;5.6;;;;;;;18.54;66.93555;94752.75;;;;
2019/07/07 00:54:25;;;;;;;7.3;5.6;;;;;;;18.54;66.93555;94752.75;;;;
2019/07/07 00:55:27;;;;;;;7.3;5.6;;;;;;;18.54;66.93555;94752.75;;;;
2019/07/07 00:56:28;;;;;;;7.3;5.6;;;;;;;18.54;66.93555;94752.75;;;;
2019/07/07 00:57:29;;;;;;;7.3;5.6;;;;;;;18.54;66.93555;94752.75;;;;
2019/07/07 00:58:30;;;;;;;7.3;5.6;;;;;;;18.54;66.93555;94752.75;;;;
2019/07/07 00:59:31;;;;;;;7.3;5.6;;;;;;;18.54;66.93555;94752.75;;;;
2019/07/07 01:00:32;;;;;;;6.8;6.099999;;;;;;;18.21;68.52246;94749.13;;;;
2019/07/07 01:01:34;;;;;;;6.8;6.099999;;;;;;;18.21;68.52246;94749.13;;;;
2019/07/07 01:02:35;;;;;;;6.8;6.099999;;;;;;;18.21;68.52246;94749.13;;;;
2019/07/07 01:03:36;;;;;;;6.8;6.099999;;;;;;;18.21;68.52246;94749.13;;;;
2019/07/07 01:04:37;;;;;;;6.8;6.099999;;;;;;;18.21;68.52246;94749.13;;;;
2019/07/07 01:05:38;;;;;;;6.8;6.099999;;;;;;;18.21;68.52246;94749.13;;;;
2019/07/07 01:06:40;;;;;;;6.8;6.099999;;;;;;;18.21;68.52246;94749.13;;;;
2019/07/07 01:07:41;;;;;;;6.8;6.099999;;;;;;;18.21;68.52246;94749.13;;;;
2019/07/07 01:08:42;;;;;;;6.8;6.099999;;;;;;;18.21;68.52246;94749.13;;;;
2019/07/07 01:09:43;;;;;;;6.8;6.099999;;;;;;;18.21;68.52246;94749.13;;;;
2019/07/07 01:10:44;;;;;;;7.55;5.85;;;;;;;18.16;71.00098;94720.92;;;;
2019/07/07 01:11:46;;;;;;;7.55;5.85;;;;;;;18.16;71.00098;94720.92;;;;
2019/07/07 01:12:47;;;;;;;7.55;5.85;;;;;;;18.16;71.00098;94720.92;;;;
2019/07/07 01:13:48;;;;;;;7.55;5.85;;;;;;;18.16;71.00098;94720.92;;;;
2019/07/07 01:14:49;;;;;;;7.55;5.85;;;;;;;18.16;71.00098;94720.92;;;;
2019/07/07 01:15:50;;;;;;;7.55;5.85;;;;;;;18.16;71.00098;94720.92;;;;
2019/07/07 01:16:52;;;;;;;7.55;5.85;;;;;;;18.16;71.00098;94720.92;;;;
2019/07/07 01:17:53;;;;;;;7.55;5.85;;;;;;;18.16;71.00098;94720.92;;;;
2019/07/07 01:18:54;;;;;;;7.55;5.85;;;;;;;18.16;71.00098;94720.92;;;;
2019/07/07 01:19:55;;;;;;;7.55;5.85;;;;;;;18.16;71.00098;94720.92;;;;
2019/07/07 01:20:56;;;;;;;7.55;5.85;;;;;;;18.16;71.00098;94720.92;;;;
2019/07/07 01:21:58;;;;;;;6.699999;5.5;;;;;;;18.03;72.37402;94711.69;;;;
2019/07/07 01:22:59;;;;;;;6.699999;5.5;;;;;;;18.03;72.37402;94711.69;;;;
2019/07/07 01:24:00;;;;;;;6.699999;5.5;;;;;;;18.03;72.37402;94711.69;;;;
2019/07/07 01:25:01;;;;;;;6.699999;5.5;;;;;;;18.03;72.37402;94711.69;;;;
2019/07/07 01:26:03;;;;;;;6.699999;5.5;;;;;;;18.03;72.37402;94711.69;;;;
2019/07/07 01:27:04;;;;;;;6.699999;5.5;;;;;;;18.03;72.37402;94711.69;;;;
2019/07/07 01:28:05;;;;;;;6.699999;5.5;;;;;;;18.03;72.37402;94711.69;;;;
2019/07/07 01:29:06;;;;;;;6.699999;5.5;;;;;;;18.03;72.37402;94711.69;;;;
2019/07/07 01:30:08;;;;;;;6.699999;5.5;;;;;;;18.03;72.37402;94711.69;;;;
2019/07/07 01:31:10;;;;;;;6.699999;5.5;;;;;;;18.03;72.37402;94711.69;;;;
2019/07/07 01:33:14;;;;;;;7.449999;5.85;;;;;;;17.89;74.02539;94714.48;;;;
2019/07/07 01:34:15;;;;;;;7.449999;5.85;;;;;;;17.89;74.02539;94714.48;;;;
2019/07/07 01:35:16;;;;;;;7.449999;5.85;;;;;;;17.89;74.02539;94714.48;;;;
2019/07/07 01:36:18;;;;;;;7.449999;5.85;;;;;;;17.89;74.02539;94714.48;;;;
2019/07/07 01:37:19;;;;;;;7.449999;5.85;;;;;;;17.89;74.02539;94714.48;;;;
2019/07/07 01:38:21;;;;;;;7.449999;5.85;;;;;;;17.89;74.02539;94714.48;;;;
2019/07/07 01:39:22;;;;;;;7.449999;5.85;;;;;;;17.89;74.02539;94714.48;;;;
2019/07/07 01:40:23;;;;;;;7.449999;5.85;;;;;;;17.89;74.02539;94714.48;;;;
2019/07/07 01:41:25;;;;;;;7.449999;5.85;;;;;;;17.89;74.02539;94714.48;;;;
2019/07/07 01:42:26;;;;;;;7.449999;5.85;;;;;;;17.89;74.02539;94714.48;;;;
2019/07/07 01:43:27;;;;;;;6.950001;6.2;;;;;;;17.61;75.37207;94694.42;;;;
2019/07/07 01:44:28;;;;;;;6.950001;6.2;;;;;;;17.61;75.37207;94694.42;;;;
2019/07/07 01:45:29;;;;;;;6.950001;6.2;;;;;;;17.61;75.37207;94694.42;;;;
2019/07/07 01:46:31;;;;;;;6.950001;6.2;;;;;;;17.61;75.37207;94694.42;;;;
2019/07/07 01:47:32;;;;;;;6.950001;6.2;;;;;;;17.61;75.37207;94694.42;;;;
2019/07/07 01:48:33;;;;;;;6.950001;6.2;;;;;;;17.61;75.37207;94694.42;;;;
2019/07/07 01:49:34;;;;;;;6.950001;6.2;;;;;;;17.61;75.37207;94694.42;;;;
2019/07/07 01:50:36;;;;;;;6.950001;6.2;;;;;;;17.61;75.37207;94694.42;;;;
2019/07/07 01:51:37;;;;;;;6.950001;6.2;;;;;;;17.61;75.37207;94694.42;;;;
2019/07/07 01:52:38;;;;;;;6.950001;6.2;;;;;;;17.61;75.37207;94694.42;;;;
2019/07/07 01:53:40;;;;;;;6.600001;5.800001;;;;;;;17.4;77.18359;94676.22;;;;
2019/07/07 01:54:41;;;;;;;6.600001;5.800001;;;;;;;17.4;77.18359;94676.22;;;;
2019/07/07 01:55:42;;;;;;;6.600001;5.800001;;;;;;;17.4;77.18359;94676.22;;;;
2019/07/07 01:56:43;;;;;;;6.600001;5.800001;;;;;;;17.4;77.18359;94676.22;;;;
2019/07/07 01:57:44;;;;;;;6.600001;5.800001;;;;;;;17.4;77.18359;94676.22;;;;
2019/07/07 01:58:45;;;;;;;6.600001;5.800001;;;;;;;17.4;77.18359;94676.22;;;;
2019/07/07 01:59:47;;;;;;;6.600001;5.800001;;;;;;;17.4;77.18359;94676.22;;;;
2019/07/07 02:00:48;;;;;;;6.600001;5.800001;;;;;;;17.4;77.18359;94676.22;;;;
2019/07/07 02:01:52;;;;;;;6.600001;5.800001;;;;;;;17.4;77.18359;94676.22;;;;
2019/07/07 02:02:53;;;;;;;6.600001;5.800001;;;;;;;17.4;77.18359;94676.22;;;;
2019/07/07 02:03:54;;;;;;;7.799999;7.000001;;;;;;;17.15;78.59473;94666.86;;;;
2019/07/07 02:04:55;;;;;;;7.799999;7.000001;;;;;;;17.15;78.59473;94666.86;;;;
2019/07/07 02:05:56;;;;;;;7.799999;7.000001;;;;;;;17.15;78.59473;94666.86;;;;
2019/07/07 02:06:58;;;;;;;7.799999;7.000001;;;;;;;17.15;78.59473;94666.86;;;;
2019/07/07 02:07:59;;;;;;;7.799999;7.000001;;;;;;;17.15;78.59473;94666.86;;;;
2019/07/07 02:09:00;;;;;;;7.799999;7.000001;;;;;;;17.15;78.59473;94666.86;;;;
2019/07/07 02:10:02;;;;;;;7.799999;7.000001;;;;;;;17.15;78.59473;94666.86;;;;
2019/07/07 02:11:03;;;;;;;7.799999;7.000001;;;;;;;17.15;78.59473;94666.86;;;;
2019/07/07 02:12:04;;;;;;;7.799999;7.000001;;;;;;;17.15;78.59473;94666.86;;;;
2019/07/07 02:13:06;;;;;;;7.799999;7.000001;;;;;;;17.15;78.59473;94666.86;;;;
2019/07/07 02:14:07;;;;;;;7.799999;7.000001;;;;;;;17.15;78.59473;94666.86;;;;
2019/07/07 02:15:08;;;;;;;9.25;7.349999;;;;;;;17.08;80.12305;94675.95;;;;
2019/07/07 02:16:10;;;;;;;9.25;7.349999;;;;;;;17.08;80.12305;94675.95;;;;
2019/07/07 02:17:11;;;;;;;9.25;7.349999;;;;;;;17.08;80.12305;94675.95;;;;
2019/07/07 02:18:12;;;;;;;9.25;7.349999;;;;;;;17.08;80.12305;94675.95;;;;
2019/07/07 02:19:14;;;;;;;9.25;7.349999;;;;;;;17.08;80.12305;94675.95;;;;
2019/07/07 02:20:15;;;;;;;9.25;7.349999;;;;;;;17.08;80.12305;94675.95;;;;
2019/07/07 02:21:16;;;;;;;9.25;7.349999;;;;;;;17.08;80.12305;94675.95;;;;
2019/07/07 02:22:17;;;;;;;9.25;7.349999;;;;;;;17.08;80.12305;94675.95;;;;
2019/07/07 02:23:18;;;;;;;9.25;7.349999;;;;;;;17.08;80.12305;94675.95;;;;
2019/07/07 02:24:19;;;;;;;9.25;7.349999;;;;;;;17.08;80.12305;94675.95;;;;
2019/07/07 02:25:21;;;;;;;7.75;7.05;;;;;;;17.03;81.7168;94667.42;;;;
2019/07/07 02:26:22;;;;;;;7.75;7.05;;;;;;;17.03;81.7168;94667.42;;;;
2019/07/07 02:27:23;;;;;;;7.75;7.05;;;;;;;17.03;81.7168;94667.42;;;;
2019/07/07 02:28:24;;;;;;;7.75;7.05;;;;;;;17.03;81.7168;94667.42;;;;
2019/07/07 02:29:25;;;;;;;7.75;7.05;;;;;;;17.03;81.7168;94667.42;;;;
2019/07/07 02:30:26;;;;;;;7.75;7.05;;;;;;;17.03;81.7168;94667.42;;;;
2019/07/07 02:31:28;;;;;;;7.75;7.05;;;;;;;17.03;81.7168;94667.42;;;;
2019/07/07 02:32:29;;;;;;;7.75;7.05;;;;;;;17.03;81.7168;94667.42;;;;
2019/07/07 02:33:30;;;;;;;7.75;7.05;;;;;;;17.03;81.7168;94667.42;;;;
2019/07/07 02:34:31;;;;;;;7.75;7.05;;;;;;;17.03;81.7168;94667.42;;;;
2019/07/07 02:35:32;;;;;;;8.400001;7.550001;;;;;;;17.05;82.93555;94674.19;;;;
2019/07/07 02:36:34;;;;;;;8.400001;7.550001;;;;;;;17.05;82.93555;94674.19;;;;
2019/07/07 02:37:35;;;;;;;8.400001;7.550001;;;;;;;17.05;82.93555;94674.19;;;;
2019/07/07 02:38:36;;;;;;;8.400001;7.550001;;;;;;;17.05;82.93555;94674.19;;;;
2019/07/07 02:39:37;;;;;;;8.400001;7.550001;;;;;;;17.05;82.93555;94674.19;;;;
2019/07/07 02:40:38;;;;;;;8.400001;7.550001;;;;;;;17.05;82.93555;94674.19;;;;
2019/07/07 02:41:40;;;;;;;8.400001;7.550001;;;;;;;17.05;82.93555;94674.19;;;;
2019/07/07 02:42:41;;;;;;;8.400001;7.550001;;;;;;;17.05;82.93555;94674.19;;;;
2019/07/07 02:43:42;;;;;;;8.400001;7.550001;;;;;;;17.05;82.93555;94674.19;;;;
2019/07/07 02:44:43;;;;;;;8.400001;7.550001;;;;;;;17.05;82.93555;94674.19;;;;
2019/07/07 02:45:45;;;;;;;8.400001;7.550001;;;;;;;17.05;82.93555;94674.19;;;;
2019/07/07 02:46:46;;;;;;;7.75;7.05;;;;;;;17.01;83.83691;94662.81;;;;
2019/07/07 02:47:47;;;;;;;7.75;7.05;;;;;;;17.01;83.83691;94662.81;;;;
2019/07/07 02:48:48;;;;;;;7.75;7.05;;;;;;;17.01;83.83691;94662.81;;;;
2019/07/07 02:49:49;;;;;;;7.75;7.05;;;;;;;17.01;83.83691;94662.81;;;;
2019/07/07 02:50:50;;;;;;;7.75;7.05;;;;;;;17.01;83.83691;94662.81;;;;
2019/07/07 02:51:51;;;;;;;7.75;7.05;;;;;;;17.01;83.83691;94662.81;;;;
2019/07/07 02:52:52;;;;;;;7.75;7.05;;;;;;;17.01;83.83691;94662.81;;;;
2019/07/07 02:53:53;;;;;;;7.75;7.05;;;;;;;17.01;83.83691;94662.81;;;;
2019/07/07 02:54:55;;;;;;;7.75;7.05;;;;;;;17.01;83.83691;94662.81;;;;
2019/07/07 02:55:56;;;;;;;7.75;7.05;;;;;;;17.01;83.83691;94662.81;;;;
2019/07/07 02:56:57;;;;;;;8.450001;7.6;;;;;;;16.99;84.99121;94663.09;;;;
2019/07/07 02:57:58;;;;;;;8.450001;7.6;;;;;;;16.99;84.99121;94663.09;;;;
2019/07/07 02:58:59;;;;;;;8.450001;7.6;;;;;;;16.99;84.99121;94663.09;;;;
2019/07/07 03:00:00;;;;;;;8.450001;7.6;;;;;;;16.99;84.99121;94663.09;;;;
2019/07/07 03:01:03;;;;;;;8.450001;7.6;;;;;;;16.99;84.99121;94663.09;;;;
2019/07/07 03:02:04;;;;;;;8.450001;7.6;;;;;;;16.99;84.99121;94663.09;;;;
2019/07/07 03:03:05;;;;;;;8.450001;7.6;;;;;;;16.99;84.99121;94663.09;;;;
2019/07/07 03:04:06;;;;;;;8.450001;7.6;;;;;;;16.99;84.99121;94663.09;;;;
2019/07/07 03:05:07;;;;;;;8.450001;7.6;;;;;;;16.99;84.99121;94663.09;;;;
2019/07/07 03:06:08;;;;;;;8.450001;7.6;;;;;;;16.99;84.99121;94663.09;;;;
2019/07/07 03:07:09;;;;;;;8.450001;7.6;;;;;;;16.99;84.99121;94663.09;;;;
2019/07/07 03:08:10;;;;;;;9;8.099998;;;;;;;16.94;86.07422;94659.2;;;;
2019/07/07 03:09:12;;;;;;;9;8.099998;;;;;;;16.94;86.07422;94659.2;;;;
2019/07/07 03:10:13;;;;;;;9;8.099998;;;;;;;16.94;86.07422;94659.2;;;;
2019/07/07 03:11:14;;;;;;;9;8.099998;;;;;;;16.94;86.07422;94659.2;;;;
2019/07/07 03:12:15;;;;;;;9;8.099998;;;;;;;16.94;86.07422;94659.2;;;;
2019/07/07 03:13:16;;;;;;;9;8.099998;;;;;;;16.94;86.07422;94659.2;;;;
2019/07/07 03:14:18;;;;;;;9;8.099998;;;;;;;16.94;86.07422;94659.2;;;;
2019/07/07 03:15:19;;;;;;;9;8.099998;;;;;;;16.94;86.07422;94659.2;;;;
2019/07/07 03:16:20;;;;;;;9;8.099998;;;;;;;16.94;86.07422;94659.2;;;;
2019/07/07 03:17:21;;;;;;;9;8.099998;;;;;;;16.94;86.07422;94659.2;;;;
2019/07/07 03:18:22;;;;;;;9.299999;8.4;;;;;;;16.92;87.28125;94665.5;;;;
2019/07/07 03:19:23;;;;;;;9.299999;8.4;;;;;;;16.92;87.28125;94665.5;;;;
2019/07/07 03:20:24;;;;;;;9.299999;8.4;;;;;;;16.92;87.28125;94665.5;;;;
2019/07/07 03:21:25;;;;;;;9.299999;8.4;;;;;;;16.92;87.28125;94665.5;;;;
2019/07/07 03:22:26;;;;;;;9.299999;8.4;;;;;;;16.92;87.28125;94665.5;;;;
2019/07/07 03:23:28;;;;;;;9.299999;8.4;;;;;;;16.92;87.28125;94665.5;;;;
2019/07/07 03:24:29;;;;;;;9.299999;8.4;;;;;;;16.92;87.28125;94665.5;;;;
2019/07/07 03:25:30;;;;;;;9.299999;8.4;;;;;;;16.92;87.28125;94665.5;;;;
2019/07/07 03:26:31;;;;;;;9.299999;8.4;;;;;;;16.92;87.28125;94665.5;;;;
2019/07/07 03:27:33;;;;;;;9.299999;8.4;;;;;;;16.92;87.28125;94665.5;;;;
2019/07/07 03:28:34;;;;;;;8.700001;7.899999;;;;;;;16.92;88.20117;94660.05;;;;
2019/07/07 03:29:35;;;;;;;8.700001;7.899999;;;;;;;16.92;88.20117;94660.05;;;;
2019/07/07 03:30:36;;;;;;;8.700001;7.899999;;;;;;;16.92;88.20117;94660.05;;;;
2019/07/07 03:31:37;;;;;;;8.700001;7.899999;;;;;;;16.92;88.20117;94660.05;;;;
2019/07/07 03:32:38;;;;;;;8.700001;7.899999;;;;;;;16.92;88.20117;94660.05;;;;
2019/07/07 03:33:39;;;;;;;8.700001;7.899999;;;;;;;16.92;88.20117;94660.05;;;;
2019/07/07 03:34:40;;;;;;;8.700001;7.899999;;;;;;;16.92;88.20117;94660.05;;;;
2019/07/07 03:35:41;;;;;;;8.700001;7.899999;;;;;;;16.92;88.20117;94660.05;;;;
2019/07/07 03:36:42;;;;;;;8.700001;7.899999;;;;;;;16.92;88.20117;94660.05;;;;
2019/07/07 03:37:44;;;;;;;8.700001;7.899999;;;;;;;16.92;88.20117;94660.05;;;;
2019/07/07 03:38:45;;;;;;;8.700001;7.899999;;;;;;;16.92;88.20117;94660.05;;;;
2019/07/07 03:39:46;;;;;;;9.650001;8.700001;;;;;;;17.04;89.20898;94667.13;;;;
2019/07/07 03:40:47;;;;;;;9.650001;8.700001;;;;;;;17.04;89.20898;94667.13;;;;
2019/07/07 03:41:48;;;;;;;9.650001;8.700001;;;;;;;17.04;89.20898;94667.13;;;;
2019/07/07 03:42:49;;;;;;;9.650001;8.700001;;;;;;;17.04;89.20898;94667.13;;;;
2019/07/07 03:43:51;;;;;;;9.650001;8.700001;;;;;;;17.04;89.20898;94667.13;;;;
2019/07/07 03:44:52;;;;;;;9.650001;8.700001;;;;;;;17.04;89.20898;94667.13;;;;
2019/07/07 03:45:53;;;;;;;9.650001;8.700001;;;;;;;17.04;89.20898;94667.13;;;;
2019/07/07 03:46:54;;;;;;;9.650001;8.700001;;;;;;;17.04;89.20898;94667.13;;;;
2019/07/07 03:47:55;;;;;;;9.650001;8.700001;;;;;;;17.04;89.20898;94667.13;;;;
2019/07/07 03:48:56;;;;;;;9.650001;8.700001;;;;;;;17.04;89.20898;94667.13;;;;
2019/07/07 03:49:57;;;;;;;9.35;8.45;;;;;;;17.11;89.44922;94675.9;;;;
2019/07/07 03:50:59;;;;;;;9.35;8.45;;;;;;;17.11;89.44922;94675.9;;;;
2019/07/07 03:52:00;;;;;;;9.35;8.45;;;;;;;17.11;89.44922;94675.9;;;;
2019/07/07 03:53:01;;;;;;;9.35;8.45;;;;;;;17.11;89.44922;94675.9;;;;
2019/07/07 03:54:02;;;;;;;9.35;8.45;;;;;;;17.11;89.44922;94675.9;;;;
2019/07/07 03:55:03;;;;;;;9.35;8.45;;;;;;;17.11;89.44922;94675.9;;;;
2019/07/07 03:56:05;;;;;;;9.35;8.45;;;;;;;17.11;89.44922;94675.9;;;;
2019/07/07 03:57:06;;;;;;;9.35;8.45;;;;;;;17.11;89.44922;94675.9;;;;
2019/07/07 03:58:07;;;;;;;9.35;8.45;;;;;;;17.11;89.44922;94675.9;;;;
2019/07/07 03:59:08;;;;;;;9.35;8.45;;;;;;;17.11;89.44922;94675.9;;;;
2019/07/07 04:00:09;;;;;;;10.35;9.15;;;;;;;17.25;90.05078;94684.45;;;;
2019/07/07 04:01:11;;;;;;;10.35;9.15;;;;;;;17.25;90.05078;94684.45;;;;
2019/07/07 04:02:12;;;;;;;10.35;9.15;;;;;;;17.25;90.05078;94684.45;;;;
2019/07/07 04:03:13;;;;;;;10.35;9.15;;;;;;;17.25;90.05078;94684.45;;;;
2019/07/07 04:04:14;;;;;;;10.35;9.15;;;;;;;17.25;90.05078;94684.45;;;;
2019/07/07 04:05:15;;;;;;;10.35;9.15;;;;;;;17.25;90.05078;94684.45;;;;
2019/07/07 04:06:17;;;;;;;10.35;9.15;;;;;;;17.25;90.05078;94684.45;;;;
2019/07/07 04:07:18;;;;;;;10.35;9.15;;;;;;;17.25;90.05078;94684.45;;;;
2019/07/07 04:08:19;;;;;;;10.35;9.15;;;;;;;17.25;90.05078;94684.45;;;;
2019/07/07 04:09:20;;;;;;;10.35;9.15;;;;;;;17.25;90.05078;94684.45;;;;
2019/07/07 04:10:21;;;;;;;10.35;9.15;;;;;;;17.25;90.05078;94684.45;;;;
2019/07/07 04:11:23;;;;;;;10;8.7;;;;;;;17.35;90.43848;94702.22;;;;
2019/07/07 04:12:24;;;;;;;10;8.7;;;;;;;17.35;90.43848;94702.22;;;;
2019/07/07 04:13:25;;;;;;;10;8.7;;;;;;;17.35;90.43848;94702.22;;;;
2019/07/07 04:14:26;;;;;;;10;8.7;;;;;;;17.35;90.43848;94702.22;;;;
2019/07/07 04:15:27;;;;;;;10;8.7;;;;;;;17.35;90.43848;94702.22;;;;
2019/07/07 04:16:28;;;;;;;10;8.7;;;;;;;17.35;90.43848;94702.22;;;;
2019/07/07 04:17:29;;;;;;;10;8.7;;;;;;;17.35;90.43848;94702.22;;;;
2019/07/07 04:18:30;;;;;;;10;8.7;;;;;;;17.35;90.43848;94702.22;;;;
2019/07/07 04:19:31;;;;;;;10;8.7;;;;;;;17.35;90.43848;94702.22;;;;
2019/07/07 04:20:32;;;;;;;10;8.7;;;;;;;17.35;90.43848;94702.22;;;;
2019/07/07 04:21:33;;;;;;;10.65;9.650002;;;;;;;17.58;91.05078;94705.36;;;;
2019/07/07 04:22:34;;;;;;;10.65;9.650002;;;;;;;17.58;91.05078;94705.36;;;;
2019/07/07 04:23:35;;;;;;;10.65;9.650002;;;;;;;17.58;91.05078;94705.36;;;;
2019/07/07 04:24:36;;;;;;;10.65;9.650002;;;;;;;17.58;91.05078;94705.36;;;;
2019/07/07 04:25:38;;;;;;;10.65;9.650002;;;;;;;17.58;91.05078;94705.36;;;;
2019/07/07 04:26:39;;;;;;;10.65;9.650002;;;;;;;17.58;91.05078;94705.36;;;;
2019/07/07 04:27:40;;;;;;;10.65;9.650002;;;;;;;17.58;91.05078;94705.36;;;;
2019/07/07 04:28:41;;;;;;;10.65;9.650002;;;;;;;17.58;91.05078;94705.36;;;;
2019/07/07 04:29:42;;;;;;;10.65;9.650002;;;;;;;17.58;91.05078;94705.36;;;;
2019/07/07 04:30:43;;;;;;;10.65;9.650002;;;;;;;17.58;91.05078;94705.36;;;;
2019/07/07 04:31:44;;;;;;;10.65;9.650002;;;;;;;17.58;91.05078;94705.36;;;;
2019/07/07 04:32:45;;;;;;;10.05;9.049999;;;;;;;17.85;91.29883;94707.85;;;;
2019/07/07 04:33:46;;;;;;;10.05;9.049999;;;;;;;17.85;91.29883;94707.85;;;;
2019/07/07 04:34:48;;;;;;;10.05;9.049999;;;;;;;17.85;91.29883;94707.85;;;;
2019/07/07 04:35:49;;;;;;;10.05;9.049999;;;;;;;17.85;91.29883;94707.85;;;;
2019/07/07 04:36:50;;;;;;;10.05;9.049999;;;;;;;17.85;91.29883;94707.85;;;;
2019/07/07 04:37:51;;;;;;;10.05;9.049999;;;;;;;17.85;91.29883;94707.85;;;;
2019/07/07 04:38:52;;;;;;;10.05;9.049999;;;;;;;17.85;91.29883;94707.85;;;;
2019/07/07 04:39:53;;;;;;;10.05;9.049999;;;;;;;17.85;91.29883;94707.85;;;;
2019/07/07 04:40:54;;;;;;;10.05;9.049999;;;;;;;17.85;91.29883;94707.85;;;;
2019/07/07 04:41:56;;;;;;;10.05;9.049999;;;;;;;17.85;91.29883;94707.85;;;;
2019/07/07 04:42:57;;;;;;;11;10;;;;;;;18.2;91.54395;94709.66;;;;
2019/07/07 04:43:58;;;;;;;11;10;;;;;;;18.2;91.54395;94709.66;;;;
2019/07/07 04:44:59;;;;;;;11;10;;;;;;;18.2;91.54395;94709.66;;;;
2019/07/07 04:46:00;;;;;;;11;10;;;;;;;18.2;91.54395;94709.66;;;;
2019/07/07 04:47:01;;;;;;;11;10;;;;;;;18.2;91.54395;94709.66;;;;
2019/07/07 04:48:02;;;;;;;11;10;;;;;;;18.2;91.54395;94709.66;;;;
2019/07/07 04:49:03;;;;;;;11;10;;;;;;;18.2;91.54395;94709.66;;;;
2019/07/07 04:50:04;;;;;;;11;10;;;;;;;18.2;91.54395;94709.66;;;;
2019/07/07 04:51:06;;;;;;;11;10;;;;;;;18.2;91.54395;94709.66;;;;
2019/07/07 04:52:08;;;;;;;11;10;;;;;;;18.2;91.54395;94709.66;;;;
2019/07/07 04:53:09;;;;;;;10.45;9.25;;;;;;;18.54;91.71094;94721.71;;;;
2019/07/07 04:54:10;;;;;;;10.45;9.25;;;;;;;18.54;91.71094;94721.71;;;;
2019/07/07 04:55:11;;;;;;;10.45;9.25;;;;;;;18.54;91.71094;94721.71;;;;
2019/07/07 04:56:12;;;;;;;10.45;9.25;;;;;;;18.54;91.71094;94721.71;;;;
2019/07/07 04:57:13;;;;;;;10.45;9.25;;;;;;;18.54;91.71094;94721.71;;;;
2019/07/07 04:58:14;;;;;;;10.45;9.25;;;;;;;18.54;91.71094;94721.71;;;;
2019/07/07 04:59:15;;;;;;;10.45;9.25;;;;;;;18.54;91.71094;94721.71;;;;
2019/07/07 05:00:17;;;;;;;10.45;9.25;;;;;;;18.54;91.71094;94721.71;;;;
2019/07/07 05:01:19;;;;;;;10.45;9.25;;;;;;;18.54;91.71094;94721.71;;;;
2019/07/07 05:02:20;;;;;;;10.45;9.25;;;;;;;18.54;91.71094;94721.71;;;;
2019/07/07 05:03:21;;;;;;;10.45;9.25;;;;;;;18.54;91.71094;94721.71;;;;
2019/07/07 05:04:22;;;;;;;10.2;9.200001;;;;;;;18.68;92.30371;94706.97;;;;
2019/07/07 05:05:24;;;;;;;10.2;9.200001;;;;;;;18.68;92.30371;94706.97;;;;
2019/07/07 05:06:25;;;;;;;10.2;9.200001;;;;;;;18.68;92.30371;94706.97;;;;
2019/07/07 05:07:26;;;;;;;10.2;9.200001;;;;;;;18.68;92.30371;94706.97;;;;
2019/07/07 05:08:27;;;;;;;10.2;9.200001;;;;;;;18.68;92.30371;94706.97;;;;
2019/07/07 05:09:28;;;;;;;10.2;9.200001;;;;;;;18.68;92.30371;94706.97;;;;
2019/07/07 05:10:29;;;;;;;10.2;9.200001;;;;;;;18.68;92.30371;94706.97;;;;
2019/07/07 05:11:31;;;;;;;10.2;9.200001;;;;;;;18.68;92.30371;94706.97;;;;
2019/07/07 05:12:32;;;;;;;10.2;9.200001;;;;;;;18.68;92.30371;94706.97;;;;
2019/07/07 05:13:33;;;;;;;10.2;9.200001;;;;;;;18.68;92.30371;94706.97;;;;
2019/07/07 05:14:34;;;;;;;11.6;10.2;;;;;;;18.78;92.7793;94685.44;;;;
2019/07/07 05:15:35;;;;;;;11.6;10.2;;;;;;;18.78;92.7793;94685.44;;;;
2019/07/07 05:16:36;;;;;;;11.6;10.2;;;;;;;18.78;92.7793;94685.44;;;;
2019/07/07 05:17:37;;;;;;;11.6;10.2;;;;;;;18.78;92.7793;94685.44;;;;
2019/07/07 05:18:38;;;;;;;11.6;10.2;;;;;;;18.78;92.7793;94685.44;;;;
2019/07/07 05:19:39;;;;;;;11.6;10.2;;;;;;;18.78;92.7793;94685.44;;;;
2019/07/07 05:20:40;;;;;;;11.6;10.2;;;;;;;18.78;92.7793;94685.44;;;;
2019/07/07 05:21:42;;;;;;;11.6;10.2;;;;;;;18.78;92.7793;94685.44;;;;
2019/07/07 05:22:43;;;;;;;11.6;10.2;;;;;;;18.78;92.7793;94685.44;;;;
2019/07/07 05:23:44;;;;;;;11.6;10.2;;;;;;;18.78;92.7793;94685.44;;;;
2019/07/07 05:24:45;;;;;;;11.6;10.2;;;;;;;18.78;92.7793;94685.44;;;;
2019/07/07 05:25:47;;;;;;;10.2;9.25;;;;;;;18.94;93.29102;94673.52;;;;
2019/07/07 05:26:48;;;;;;;10.2;9.25;;;;;;;18.94;93.29102;94673.52;;;;
2019/07/07 05:27:49;;;;;;;10.2;9.25;;;;;;;18.94;93.29102;94673.52;;;;
2019/07/07 05:28:50;;;;;;;10.2;9.25;;;;;;;18.94;93.29102;94673.52;;;;
2019/07/07 05:29:51;;;;;;;10.2;9.25;;;;;;;18.94;93.29102;94673.52;;;;
2019/07/07 05:30:52;;;;;;;10.2;9.25;;;;;;;18.94;93.29102;94673.52;;;;
2019/07/07 05:31:53;;;;;;;10.2;9.25;;;;;;;18.94;93.29102;94673.52;;;;
2019/07/07 05:32:54;;;;;;;10.2;9.25;;;;;;;18.94;93.29102;94673.52;;;;
2019/07/07 05:33:55;;;;;;;10.2;9.25;;;;;;;18.94;93.29102;94673.52;;;;
2019/07/07 05:34:57;;;;;;;10.2;9.25;;;;;;;18.94;93.29102;94673.52;;;;
2019/07/07 05:35:58;;;;;;;10.9;9.749999;;;;;;;19;93.54199;94672.45;;;;